createdAt,value
2023-03-31T00:00:19.095Z,9.64
2023-03-31T00:05:21.672Z,9.66
2023-03-31T00:10:23.996Z,9.65
2023-03-31T00:15:26.384Z,9.65
2023-03-31T00:20:28.777Z,9.65
2023-03-31T00:25:30.827Z,9.64
2023-03-31T00:30:32.890Z,9.65
2023-03-31T00:35:39.530Z,9.64
2023-03-31T00:40:47.478Z,9.62
2023-03-31T00:45:49.560Z,9.61
2023-03-31T00:50:56.237Z,9.60
2023-03-31T00:56:05.712Z,9.56
2023-03-31T01:01:08.734Z,9.53
2023-03-31T01:06:10.818Z,9.51
2023-03-31T01:11:19.259Z,9.48
2023-03-31T01:16:21.291Z,9.49
2023-03-31T01:21:23.627Z,9.45
2023-03-31T01:26:40.542Z,9.46
2023-03-31T01:32:01.103Z,9.43
2023-03-31T01:37:31.036Z,9.39
2023-03-31T01:42:59.884Z,9.37
2023-03-31T01:48:09.666Z,9.34
2023-03-31T01:53:36.549Z,9.32
2023-03-31T01:58:42.720Z,9.31
2023-03-31T02:03:53.660Z,9.27
2023-03-31T02:09:01.473Z,9.27
2023-03-31T02:14:08.531Z,9.26
2023-03-31T02:19:11.349Z,9.26
2023-03-31T02:24:15.860Z,9.24
2023-03-31T02:29:17.948Z,9.23
2023-03-31T02:34:19.803Z,9.21
2023-03-31T02:39:29.640Z,9.18
2023-03-31T02:44:31.838Z,9.16
2023-03-31T02:49:36.398Z,9.13
2023-03-31T02:55:02.940Z,9.10
2023-03-31T03:00:15.781Z,9.09
2023-03-31T03:05:20.514Z,9.07
2023-03-31T03:10:59.167Z,9.06
2023-03-31T03:16:28.143Z,9.00
2023-03-31T03:21:31.199Z,8.99
2023-03-31T03:26:35.467Z,8.97
2023-03-31T03:31:37.528Z,8.97
2023-03-31T03:36:39.912Z,8.96
2023-03-31T03:41:41.896Z,8.94
2023-03-31T03:46:43.866Z,8.92
2023-03-31T03:51:45.858Z,8.91
2023-03-31T03:56:47.867Z,8.89
2023-03-31T04:01:49.997Z,8.87
2023-03-31T04:06:52.100Z,8.83
2023-03-31T04:11:54.168Z,8.82
2023-03-31T04:16:56.647Z,8.79
2023-03-31T04:22:03.245Z,8.77
2023-03-31T04:27:07.805Z,8.75
2023-03-31T04:32:09.945Z,8.72
2023-03-31T04:37:12.033Z,8.70
2023-03-31T04:42:15.225Z,8.68
2023-03-31T04:47:17.223Z,8.65
2023-03-31T04:52:19.241Z,8.64
2023-03-31T04:57:21.644Z,8.63
2023-03-31T05:02:25.422Z,8.63
2023-03-31T05:07:27.683Z,8.61
2023-03-31T05:12:29.722Z,8.62
2023-03-31T05:17:33.335Z,8.61
2023-03-31T05:22:37.536Z,8.62
2023-03-31T05:27:39.536Z,8.63
2023-03-31T05:32:41.817Z,8.65
2023-03-31T05:37:43.689Z,8.65
2023-03-31T05:42:45.765Z,8.65
2023-03-31T05:47:47.878Z,8.67
2023-03-31T05:52:49.962Z,8.70
2023-03-31T05:57:52.042Z,8.72
2023-03-31T06:02:54.156Z,8.75
2023-03-31T06:07:56.020Z,8.77
2023-03-31T06:13:00.707Z,8.81
2023-03-31T06:18:03.426Z,8.84
2023-03-31T06:23:05.751Z,8.88
2023-03-31T06:28:08.017Z,8.93
2023-03-31T06:33:15.174Z,8.95
2023-03-31T06:38:17.849Z,8.96
2023-03-31T06:43:20.087Z,9.00
2023-03-31T06:48:23.971Z,9.04
2023-03-31T06:53:27.092Z,9.11
2023-03-31T06:58:31.458Z,9.23
2023-03-31T07:03:34.827Z,9.37
2023-03-31T07:08:37.460Z,9.57
2023-03-31T07:13:39.987Z,9.75
2023-03-31T07:18:42.610Z,9.89
2023-03-31T07:23:44.627Z,10.00
2023-03-31T07:28:47.447Z,10.07
2023-03-31T07:33:49.949Z,10.12
2023-03-31T07:38:52.101Z,10.16
2023-03-31T07:43:54.331Z,10.21
2023-03-31T07:48:59.006Z,10.25
2023-03-31T07:54:01.481Z,10.29
2023-03-31T07:59:03.638Z,10.33
2023-03-31T08:04:06.024Z,10.37
2023-03-31T08:09:08.393Z,10.41
2023-03-31T08:14:11.688Z,10.44
2023-03-31T08:19:13.930Z,10.48
2023-03-31T08:24:16.181Z,10.51
2023-03-31T08:29:18.484Z,10.58
2023-03-31T08:34:22.824Z,10.64
2023-03-31T08:39:25.253Z,10.70
2023-03-31T08:44:35.173Z,10.77
2023-03-31T08:49:50.923Z,10.83
2023-03-31T08:54:59.005Z,10.89
2023-03-31T09:00:07.434Z,10.93
2023-03-31T09:06:00.756Z,10.98
2023-03-31T09:11:46.604Z,11.04
2023-03-31T09:17:18.683Z,11.08
2023-03-31T09:22:26.176Z,11.11
2023-03-31T09:27:32.134Z,11.15
2023-03-31T09:32:34.659Z,11.24
2023-03-31T09:37:37.711Z,11.42
2023-03-31T09:42:42.219Z,11.70
2023-03-31T09:47:50.908Z,12.01
2023-03-31T09:52:59.482Z,12.18
2023-03-31T09:58:04.600Z,12.42
2023-03-31T10:03:08.328Z,12.70
2023-03-31T10:08:34.236Z,12.90
2023-03-31T10:13:42.203Z,13.02
2023-03-31T10:18:44.323Z,13.17
2023-03-31T10:23:52.387Z,13.19
2023-03-31T10:28:55.884Z,13.41
2023-03-31T10:34:00.351Z,13.31
2023-03-31T10:39:07.949Z,13.43
2023-03-31T10:44:38.918Z,13.53
2023-03-31T10:49:43.909Z,13.71
2023-03-31T10:55:03.792Z,13.70
2023-03-31T11:00:19.496Z,13.75
2023-03-31T11:05:50.131Z,13.98
2023-03-31T11:10:54.271Z,13.87
2023-03-31T11:16:19.352Z,14.06
2023-03-31T11:21:34.466Z,14.22
2023-03-31T11:27:00.654Z,14.31
2023-03-31T11:32:31.441Z,14.43
2023-03-31T11:37:42.016Z,14.50
2023-03-31T11:42:58.968Z,14.59
2023-03-31T11:48:15.520Z,14.63
2023-03-31T11:53:31.938Z,14.66
2023-03-31T11:58:54.713Z,14.70
2023-03-31T12:04:10.382Z,14.76
2023-03-31T12:09:52.485Z,15.01
2023-03-31T12:15:07.885Z,15.37
2023-03-31T12:20:21.786Z,15.46
2023-03-31T12:25:27.309Z,15.53
2023-03-31T12:30:37.892Z,15.59
2023-03-31T12:35:58.434Z,15.68
2023-03-31T12:41:49.523Z,15.64
2023-03-31T12:47:29.031Z,15.72
2023-03-31T12:52:46.953Z,15.77
2023-03-31T12:57:50.358Z,15.85
2023-03-31T13:03:31.028Z,15.83
2023-03-31T13:08:53.264Z,15.88
2023-03-31T13:14:01.031Z,15.92
2023-03-31T13:19:04.050Z,15.85
2023-03-31T13:24:07.574Z,15.85
2023-03-31T13:29:20.490Z,15.81
2023-03-31T13:34:23.049Z,15.76
2023-03-31T13:39:53.968Z,15.70
2023-03-31T13:45:20.667Z,15.60
2023-03-31T13:51:07.171Z,15.54
2023-03-31T13:56:33.604Z,15.51
2023-03-31T14:01:55.074Z,15.45
2023-03-31T14:07:02.722Z,15.47
2023-03-31T14:12:22.534Z,15.48
2023-03-31T14:17:47.166Z,15.50
2023-03-31T14:23:24.925Z,15.48
2023-03-31T14:29:02.246Z,15.48
2023-03-31T14:34:26.548Z,15.46
2023-03-31T14:39:32.939Z,15.41
2023-03-31T14:44:36.157Z,15.41
2023-03-31T14:49:43.726Z,15.37
2023-03-31T14:54:48.388Z,15.31
2023-03-31T14:59:53.846Z,15.22
2023-03-31T15:04:57.135Z,15.14
2023-03-31T15:10:01.847Z,15.05
2023-03-31T15:15:06.841Z,15.00
2023-03-31T15:20:35.703Z,14.94
2023-03-31T15:25:43.412Z,14.88
2023-03-31T15:30:50.419Z,14.84
2023-03-31T15:36:00.439Z,14.76
2023-03-31T15:41:10.316Z,14.73
2023-03-31T15:46:41.108Z,14.68
2023-03-31T15:51:43.801Z,14.61
2023-03-31T15:56:46.422Z,14.45
2023-03-31T16:01:50.899Z,14.29
2023-03-31T16:06:58.741Z,14.17
2023-03-31T16:12:08.122Z,14.03
2023-03-31T16:17:21.742Z,13.94
2023-03-31T16:22:32.089Z,13.86
2023-03-31T16:27:42.889Z,13.76
2023-03-31T16:33:09.820Z,13.66
2023-03-31T16:38:16.484Z,13.61
2023-03-31T16:43:34.726Z,13.58
2023-03-31T16:48:37.201Z,13.51
2023-03-31T16:53:39.727Z,13.44
2023-03-31T16:58:42.466Z,13.39
2023-03-31T17:03:48.182Z,13.32
2023-03-31T17:08:51.425Z,13.24
2023-03-31T17:14:00.813Z,13.15
2023-03-31T17:19:05.624Z,13.07
2023-03-31T17:24:09.151Z,12.99
2023-03-31T17:29:16.648Z,12.92
2023-03-31T17:34:24.489Z,12.71
2023-03-31T17:39:37.027Z,12.67
2023-03-31T17:44:42.831Z,12.63
2023-03-31T17:49:45.630Z,12.60
2023-03-31T17:54:50.278Z,12.56
2023-03-31T17:59:54.653Z,12.48
2023-03-31T18:04:57.868Z,12.44
2023-03-31T18:10:02.486Z,12.39
2023-03-31T18:15:14.362Z,12.32
2023-03-31T18:20:18.708Z,12.26
2023-03-31T18:25:28.193Z,12.19
2023-03-31T18:30:34.562Z,12.14
2023-03-31T18:35:38.425Z,12.07
2023-03-31T18:40:57.011Z,12.01
2023-03-31T18:46:30.730Z,11.95
2023-03-31T18:51:37.940Z,11.89
2023-03-31T18:56:46.312Z,11.83
2023-03-31T19:02:12.001Z,11.76
2023-03-31T19:07:27.338Z,11.73
2023-03-31T19:12:47.813Z,11.68
2023-03-31T19:23:30.834Z,11.60
2023-03-31T19:28:34.389Z,11.56
2023-03-31T19:33:37.311Z,11.49
2023-03-31T19:38:40.249Z,11.45
2023-03-31T19:43:43.544Z,11.43
2023-03-31T19:48:48.005Z,11.37
2023-03-31T19:53:52.881Z,11.34
2023-03-31T19:58:56.464Z,11.30
2023-03-31T20:04:05.051Z,11.28
2023-03-31T20:09:11.556Z,11.25
2023-03-31T20:14:23.106Z,11.21
2023-03-31T20:19:29.879Z,11.16
2023-03-31T20:24:41.247Z,11.14
2023-03-31T20:29:44.480Z,11.10
2023-03-31T20:34:47.377Z,11.07
2023-03-31T20:39:50.623Z,11.04
2023-03-31T20:44:52.914Z,11.00
2023-03-31T20:49:55.077Z,10.97
2023-03-31T20:54:57.644Z,10.95
2023-03-31T21:00:02.142Z,10.93
2023-03-31T21:05:04.474Z,10.91
2023-03-31T21:10:06.814Z,10.86
2023-03-31T21:15:09.734Z,10.83
2023-03-31T21:20:12.092Z,10.79
2023-03-31T21:25:14.217Z,10.77
2023-03-31T21:30:17.685Z,10.74
2023-03-31T21:35:21.428Z,10.71
2023-03-31T21:40:30.122Z,10.68
2023-03-31T21:45:38.196Z,10.64
2023-03-31T21:50:40.700Z,10.61
2023-03-31T21:55:47.990Z,10.58
2023-03-31T22:00:50.800Z,10.52
2023-03-31T22:05:53.116Z,10.46
2023-03-31T22:10:57.619Z,10.44
2023-03-31T22:16:02.125Z,10.42
2023-03-31T22:21:14.490Z,10.41
2023-03-31T22:26:16.509Z,10.39
2023-03-31T22:31:18.789Z,10.36
2023-03-31T22:36:21.033Z,10.36
2023-03-31T22:41:23.363Z,10.33
2023-03-31T22:46:25.709Z,10.29
2023-03-31T22:51:27.863Z,10.26
2023-03-31T22:56:29.939Z,10.24
2023-03-31T23:01:31.882Z,10.22
2023-03-31T23:06:36.017Z,10.18
2023-03-31T23:11:38.418Z,10.15
2023-03-31T23:16:40.785Z,10.14
2023-03-31T23:21:42.872Z,10.11
2023-03-31T23:26:44.740Z,10.08
2023-03-31T23:31:46.839Z,10.06
2023-03-31T23:36:49.185Z,10.01
2023-03-31T23:41:51.437Z,10.00
2023-03-31T23:46:53.558Z,9.99
2023-03-31T23:51:55.620Z,9.97
2023-03-31T23:56:58.393Z,9.95
